createdAt,value
2023-05-24T00:00:30.018Z,62.13
2023-05-24T00:01:02.631Z,62.40
2023-05-24T00:01:34.825Z,62.63
2023-05-24T00:02:14.792Z,62.60
2023-05-24T00:02:47.278Z,62.20
2023-05-24T00:03:21.663Z,63.33
2023-05-24T00:03:59.283Z,63.35
2023-05-24T00:04:33.534Z,61.42
2023-05-24T00:05:08.057Z,61.80
2023-05-24T00:05:41.265Z,62.28
2023-05-24T00:06:13.313Z,62.38
2023-05-24T00:06:45.607Z,61.47
2023-05-24T00:07:17.632Z,61.08
2023-05-24T00:07:50.783Z,61.65
2023-05-24T00:08:35.158Z,62.13
2023-05-24T00:09:07.417Z,63.83
2023-05-24T00:09:40.562Z,62.35
2023-05-24T00:10:12.751Z,61.90
2023-05-24T00:10:44.921Z,63.35
2023-05-24T00:11:17.895Z,61.78
2023-05-24T00:11:50.023Z,61.95
2023-05-24T00:12:21.986Z,61.88
2023-05-24T00:12:54.911Z,62.03
2023-05-24T00:13:27.124Z,61.78
2023-05-24T00:13:59.094Z,61.90
2023-05-24T00:14:32.093Z,62.45
2023-05-24T00:15:04.895Z,61.70
2023-05-24T00:15:36.905Z,62.05
2023-05-24T00:16:09.940Z,61.38
2023-05-24T00:16:42.162Z,61.78
2023-05-24T00:17:14.185Z,62.38
2023-05-24T00:17:47.368Z,61.80
2023-05-24T00:18:19.410Z,62.78
2023-05-24T00:18:52.210Z,61.60
2023-05-24T00:19:26.083Z,61.90
2023-05-24T00:19:59.778Z,61.72
2023-05-24T00:20:31.983Z,61.83
2023-05-24T00:21:05.739Z,62.92
2023-05-24T00:21:37.748Z,62.63
2023-05-24T00:22:09.761Z,61.53
2023-05-24T00:22:43.188Z,61.88
2023-05-24T00:23:15.145Z,64.13
2023-05-24T00:23:47.562Z,62.78
2023-05-24T00:24:20.718Z,62.30
2023-05-24T00:24:52.788Z,63.13
2023-05-24T00:25:24.913Z,63.20
2023-05-24T00:25:57.873Z,62.95
2023-05-24T00:26:38.523Z,61.97
2023-05-24T00:27:14.000Z,61.85
2023-05-24T00:27:47.001Z,62.20
2023-05-24T00:28:19.146Z,62.03
2023-05-24T00:28:51.184Z,61.42
2023-05-24T00:29:24.346Z,61.97
2023-05-24T00:29:56.425Z,61.60
2023-05-24T00:30:28.451Z,63.17
2023-05-24T00:31:00.993Z,62.45
2023-05-24T00:31:34.786Z,61.15
2023-05-24T00:32:07.140Z,62.35
2023-05-24T00:32:39.268Z,62.15
2023-05-24T00:33:12.250Z,61.10
2023-05-24T00:33:44.199Z,62.22
2023-05-24T00:34:16.734Z,63.25
2023-05-24T00:34:51.326Z,62.08
2023-05-24T00:35:24.747Z,63.15
2023-05-24T00:35:58.618Z,61.88
2023-05-24T00:36:31.778Z,63.03
2023-05-24T00:37:03.963Z,61.95
2023-05-24T00:37:37.431Z,62.92
2023-05-24T00:38:10.545Z,61.33
2023-05-24T00:38:42.634Z,63.03
2023-05-24T00:39:14.658Z,62.40
2023-05-24T00:39:49.480Z,62.65
2023-05-24T00:40:21.787Z,61.15
2023-05-24T00:40:56.443Z,61.15
2023-05-24T00:41:29.390Z,62.78
2023-05-24T00:42:02.224Z,60.92
2023-05-24T00:42:34.206Z,62.22
2023-05-24T00:43:07.270Z,61.97
2023-05-24T00:43:39.228Z,61.55
2023-05-24T00:44:11.342Z,61.17
2023-05-24T00:44:43.402Z,62.45
2023-05-24T00:45:16.415Z,61.75
2023-05-24T00:45:48.723Z,63.85
2023-05-24T00:46:23.111Z,63.08
2023-05-24T00:46:55.159Z,62.50
2023-05-24T00:47:28.483Z,61.63
2023-05-24T00:48:00.571Z,62.30
2023-05-24T00:48:33.612Z,62.78
2023-05-24T00:49:06.684Z,61.92
2023-05-24T00:49:38.853Z,61.67
2023-05-24T00:50:13.094Z,62.92
2023-05-24T00:50:48.634Z,61.40
2023-05-24T00:51:20.961Z,61.15
2023-05-24T00:51:54.003Z,62.97
2023-05-24T00:52:26.982Z,61.80
2023-05-24T00:53:02.190Z,63.13
2023-05-24T00:53:36.989Z,62.38
2023-05-24T00:54:09.438Z,62.25
2023-05-24T00:54:42.506Z,61.80
2023-05-24T00:55:16.332Z,62.80
2023-05-24T00:55:49.216Z,62.22
2023-05-24T00:56:22.495Z,62.40
2023-05-24T00:56:56.144Z,61.33
2023-05-24T00:57:30.941Z,61.25
2023-05-24T00:58:04.316Z,63.63
2023-05-24T00:58:36.529Z,61.30
2023-05-24T00:59:09.028Z,62.03
2023-05-24T00:59:42.299Z,61.50
2023-05-24T01:00:14.666Z,61.00
2023-05-24T01:00:49.781Z,60.83
2023-05-24T01:01:25.689Z,61.40
2023-05-24T01:01:59.804Z,62.03
2023-05-24T01:02:32.650Z,61.95
2023-05-24T01:03:05.476Z,61.45
2023-05-24T01:03:39.670Z,62.35
2023-05-24T01:04:12.539Z,62.80
2023-05-24T01:04:45.044Z,60.78
2023-05-24T01:05:18.283Z,61.72
2023-05-24T01:05:52.274Z,61.40
2023-05-24T01:06:27.188Z,63.20
2023-05-24T01:07:09.952Z,61.33
2023-05-24T01:07:50.506Z,62.58
2023-05-24T01:08:38.076Z,61.63
2023-05-24T01:09:24.102Z,61.53
2023-05-24T01:10:09.301Z,61.00
2023-05-24T01:10:48.768Z,61.67
2023-05-24T01:11:35.684Z,61.22
2023-05-24T01:12:27.864Z,62.55
2023-05-24T01:13:08.421Z,62.15
2023-05-24T01:13:47.633Z,61.72
2023-05-24T01:14:27.010Z,62.30
2023-05-24T01:15:10.580Z,61.22
2023-05-24T01:15:51.730Z,61.90
2023-05-24T01:16:27.588Z,63.00
2023-05-24T01:17:09.367Z,61.78
2023-05-24T01:17:48.510Z,61.78
2023-05-24T01:18:30.438Z,61.57
2023-05-24T01:19:13.002Z,61.42
2023-05-24T01:19:52.458Z,60.97
2023-05-24T01:20:26.921Z,62.03
2023-05-24T01:21:18.627Z,62.80
2023-05-24T01:22:12.067Z,61.97
2023-05-24T01:23:07.254Z,61.45
2023-05-24T01:23:47.574Z,61.80
2023-05-24T01:24:42.362Z,61.50
2023-05-24T01:25:23.158Z,62.75
2023-05-24T01:26:15.031Z,61.85
2023-05-24T01:27:09.904Z,61.78
2023-05-24T01:27:44.495Z,61.17
2023-05-24T01:28:18.415Z,61.22
2023-05-24T01:28:53.658Z,62.60
2023-05-24T01:29:30.435Z,63.80
2023-05-24T01:30:05.018Z,62.60
2023-05-24T01:30:37.553Z,62.03
2023-05-24T01:31:11.648Z,62.72
2023-05-24T01:31:43.868Z,61.50
2023-05-24T01:32:16.160Z,61.78
2023-05-24T01:32:48.471Z,61.75
2023-05-24T01:33:22.142Z,61.80
2023-05-24T01:33:54.090Z,62.03
2023-05-24T01:34:26.280Z,61.85
2023-05-24T01:34:59.677Z,62.58
2023-05-24T01:35:31.588Z,62.97
2023-05-24T01:36:03.681Z,61.70
2023-05-24T01:36:36.620Z,63.08
2023-05-24T01:37:08.522Z,62.75
2023-05-24T01:37:40.484Z,62.58
2023-05-24T01:38:12.752Z,61.47
2023-05-24T01:38:47.300Z,61.40
2023-05-24T01:39:20.112Z,61.53
2023-05-24T01:39:52.847Z,61.28
2023-05-24T01:40:25.889Z,61.80
2023-05-24T01:41:05.657Z,61.03
2023-05-24T01:41:44.249Z,61.15
2023-05-24T01:42:27.083Z,62.20
2023-05-24T01:43:05.249Z,62.15
2023-05-24T01:43:41.482Z,61.75
2023-05-24T01:44:19.816Z,61.25
2023-05-24T01:44:59.866Z,61.75
2023-05-24T01:45:36.796Z,61.90
2023-05-24T01:46:17.808Z,60.92
2023-05-24T01:46:56.735Z,61.22
2023-05-24T01:47:43.394Z,60.95
2023-05-24T01:48:22.354Z,61.95
2023-05-24T01:49:02.253Z,62.78
2023-05-24T01:49:38.430Z,61.45
2023-05-24T01:50:17.599Z,61.47
2023-05-24T01:50:56.196Z,62.20
2023-05-24T01:51:38.768Z,61.13
2023-05-24T01:52:16.233Z,61.25
2023-05-24T01:52:51.494Z,62.42
2023-05-24T01:53:26.313Z,62.42
2023-05-24T01:54:02.989Z,61.22
2023-05-24T01:54:39.414Z,63.60
2023-05-24T01:55:15.113Z,61.97
2023-05-24T01:55:50.436Z,61.05
2023-05-24T01:56:22.854Z,60.92
2023-05-24T01:56:57.360Z,61.17
2023-05-24T01:57:33.372Z,61.65
2023-05-24T01:58:07.238Z,60.80
2023-05-24T01:58:40.916Z,64.18
2023-05-24T01:59:14.613Z,61.72
2023-05-24T01:59:47.382Z,61.83
2023-05-24T02:00:20.558Z,61.50
2023-05-24T02:00:54.154Z,61.10
2023-05-24T02:01:26.978Z,61.55
2023-05-24T02:01:59.569Z,61.80
2023-05-24T02:02:32.761Z,62.20
2023-05-24T02:03:05.734Z,62.05
2023-05-24T02:03:38.256Z,62.50
2023-05-24T02:04:11.938Z,61.95
2023-05-24T02:04:44.357Z,60.60
2023-05-24T02:05:16.511Z,60.22
2023-05-24T02:05:49.771Z,62.30
2023-05-24T02:06:21.735Z,62.00
2023-05-24T02:06:53.772Z,61.30
2023-05-24T02:07:26.828Z,62.55
2023-05-24T02:07:59.871Z,62.72
2023-05-24T02:08:31.831Z,61.67
2023-05-24T02:09:04.009Z,62.37
2023-05-24T02:09:36.067Z,61.72
2023-05-24T02:10:09.829Z,61.70
2023-05-24T02:10:42.045Z,61.88
2023-05-24T02:11:14.146Z,61.20
2023-05-24T02:11:47.187Z,62.50
2023-05-24T02:12:19.186Z,61.10
2023-05-24T02:12:52.607Z,62.90
2023-05-24T02:13:25.718Z,60.43
2023-05-24T02:13:57.676Z,62.55
2023-05-24T02:14:29.681Z,62.08
2023-05-24T02:15:01.666Z,61.40
2023-05-24T02:15:35.368Z,61.00
2023-05-24T02:16:08.214Z,61.45
2023-05-24T02:16:42.676Z,61.92
2023-05-24T02:17:17.984Z,62.55
2023-05-24T02:17:49.974Z,61.90
2023-05-24T02:18:22.683Z,60.95
2023-05-24T02:18:55.662Z,61.38
2023-05-24T02:19:27.644Z,61.45
2023-05-24T02:20:00.029Z,61.13
2023-05-24T02:20:37.156Z,60.63
2023-05-24T02:21:09.381Z,62.00
2023-05-24T02:21:42.664Z,61.65
2023-05-24T02:22:17.322Z,61.60
2023-05-24T02:22:49.287Z,61.47
2023-05-24T02:23:21.231Z,60.85
2023-05-24T02:23:54.236Z,61.05
2023-05-24T02:24:26.801Z,60.50
2023-05-24T02:24:58.830Z,60.53
2023-05-24T02:25:32.671Z,60.63
2023-05-24T02:26:04.769Z,60.65
2023-05-24T02:26:37.026Z,60.88
2023-05-24T02:27:09.999Z,61.55
2023-05-24T02:27:42.527Z,60.20
2023-05-24T02:28:16.066Z,60.95
2023-05-24T02:28:49.413Z,62.22
2023-05-24T02:29:21.815Z,61.60
2023-05-24T02:29:53.751Z,61.00
2023-05-24T02:30:27.180Z,60.70
2023-05-24T02:30:59.336Z,62.00
2023-05-24T02:31:31.634Z,61.47
2023-05-24T02:32:03.928Z,62.13
2023-05-24T02:32:37.134Z,60.88
2023-05-24T02:33:09.244Z,61.05
2023-05-24T02:33:41.316Z,62.35
2023-05-24T02:34:14.245Z,61.75
2023-05-24T02:34:46.413Z,61.83
2023-05-24T02:35:18.360Z,61.10
2023-05-24T02:35:51.859Z,61.35
2023-05-24T02:36:24.247Z,60.35
2023-05-24T02:36:56.659Z,60.55
2023-05-24T02:37:29.657Z,60.38
2023-05-24T02:38:03.218Z,61.97
2023-05-24T02:38:35.211Z,60.42
2023-05-24T02:39:08.343Z,60.97
2023-05-24T02:39:41.432Z,61.40
2023-05-24T02:40:13.769Z,60.97
2023-05-24T02:40:49.929Z,60.75
2023-05-24T02:41:22.158Z,62.83
2023-05-24T02:41:54.211Z,61.38
2023-05-24T02:42:26.155Z,62.80
2023-05-24T02:42:59.091Z,61.95
2023-05-24T02:43:32.609Z,61.47
2023-05-24T02:44:04.810Z,62.25
2023-05-24T02:44:36.838Z,62.03
2023-05-24T02:45:10.422Z,63.33
2023-05-24T02:45:42.470Z,61.65
2023-05-24T02:46:14.780Z,61.53
2023-05-24T02:46:47.846Z,61.65
2023-05-24T02:47:20.024Z,61.25
2023-05-24T02:47:52.119Z,61.53
2023-05-24T02:48:25.075Z,61.38
2023-05-24T02:48:57.287Z,62.30
2023-05-24T02:49:29.399Z,62.55
2023-05-24T02:50:01.392Z,61.50
2023-05-24T02:50:34.340Z,61.90
2023-05-24T02:51:06.478Z,61.15
2023-05-24T02:51:38.427Z,61.10
2023-05-24T02:52:11.626Z,62.60
2023-05-24T02:52:43.629Z,62.28
2023-05-24T02:53:15.934Z,61.28
2023-05-24T02:53:48.888Z,62.00
2023-05-24T02:54:20.833Z,61.72
2023-05-24T02:54:53.007Z,63.88
2023-05-24T02:55:29.188Z,62.70
2023-05-24T02:56:01.172Z,61.22
2023-05-24T02:56:37.537Z,60.97
2023-05-24T02:57:10.482Z,63.95
2023-05-24T02:57:44.979Z,61.90
2023-05-24T02:58:17.896Z,61.85
2023-05-24T02:58:55.662Z,61.60
2023-05-24T02:59:27.804Z,61.22
2023-05-24T03:00:00.068Z,63.10
2023-05-24T03:00:33.469Z,60.80
2023-05-24T03:01:05.651Z,62.25
2023-05-24T03:01:37.717Z,62.53
2023-05-24T03:02:13.756Z,62.20
2023-05-24T03:02:47.851Z,61.83
2023-05-24T03:03:20.280Z,63.13
2023-05-24T03:03:53.578Z,61.28
2023-05-24T03:04:25.679Z,63.13
2023-05-24T03:04:57.702Z,61.65
2023-05-24T03:05:31.104Z,63.95
2023-05-24T03:06:03.627Z,62.63
2023-05-24T03:06:36.132Z,62.00
2023-05-24T03:07:09.111Z,61.53
2023-05-24T03:07:41.110Z,62.25
2023-05-24T03:08:13.230Z,61.55
2023-05-24T03:08:46.289Z,62.03
2023-05-24T03:09:19.033Z,60.83
2023-05-24T03:09:51.088Z,62.50
2023-05-24T03:10:24.063Z,63.00
2023-05-24T03:10:56.021Z,61.90
2023-05-24T03:11:27.961Z,62.55
2023-05-24T03:12:00.903Z,61.92
2023-05-24T03:12:32.981Z,61.80
2023-05-24T03:13:04.984Z,61.03
2023-05-24T03:13:38.236Z,61.25
2023-05-24T03:14:11.572Z,61.90
2023-05-24T03:14:46.312Z,61.80
2023-05-24T03:15:19.501Z,60.92
2023-05-24T03:15:51.892Z,61.17
2023-05-24T03:16:24.038Z,62.38
2023-05-24T03:16:57.445Z,61.30
2023-05-24T03:17:29.520Z,61.38
2023-05-24T03:18:01.617Z,60.75
2023-05-24T03:18:34.617Z,61.58
2023-05-24T03:19:09.778Z,63.35
2023-05-24T03:19:46.158Z,61.42
2023-05-24T03:20:24.896Z,61.42
2023-05-24T03:20:57.677Z,61.47
2023-05-24T03:21:30.365Z,61.67
2023-05-24T03:22:06.173Z,62.28
2023-05-24T03:22:38.246Z,62.03
2023-05-24T03:23:10.225Z,61.00
2023-05-24T03:23:42.194Z,62.05
2023-05-24T03:24:16.033Z,61.90
2023-05-24T03:24:48.848Z,61.35
2023-05-24T03:25:21.482Z,61.35
2023-05-24T03:25:55.026Z,62.45
2023-05-24T03:26:27.094Z,61.33
2023-05-24T03:26:59.221Z,63.17
2023-05-24T03:27:33.324Z,61.53
2023-05-24T03:28:05.502Z,61.10
2023-05-24T03:28:37.913Z,61.92
2023-05-24T03:29:15.580Z,61.20
2023-05-24T03:29:48.237Z,61.30
2023-05-24T03:30:21.618Z,63.15
2023-05-24T03:31:07.102Z,61.25
2023-05-24T03:31:39.719Z,60.70
2023-05-24T03:32:12.047Z,61.53
2023-05-24T03:32:45.445Z,61.60
2023-05-24T03:33:17.643Z,61.17
2023-05-24T03:33:49.876Z,62.17
2023-05-24T03:34:24.215Z,61.50
2023-05-24T03:34:59.588Z,60.92
2023-05-24T03:35:32.609Z,61.33
2023-05-24T03:36:06.385Z,61.75
2023-05-24T03:36:39.432Z,61.10
2023-05-24T03:37:11.578Z,62.38
2023-05-24T03:37:44.918Z,61.30
2023-05-24T03:38:17.949Z,61.88
2023-05-24T03:38:52.366Z,60.75
2023-05-24T03:39:25.609Z,62.22
2023-05-24T03:40:10.608Z,62.60
2023-05-24T03:40:54.309Z,62.65
2023-05-24T03:41:27.764Z,61.80
2023-05-24T03:42:18.301Z,62.35
2023-05-24T03:42:50.432Z,60.92
2023-05-24T03:43:43.826Z,62.65
2023-05-24T03:44:23.245Z,63.13
2023-05-24T03:44:55.323Z,62.30
2023-05-24T03:45:38.566Z,62.05
2023-05-24T03:46:24.859Z,61.28
2023-05-24T03:46:57.004Z,63.08
2023-05-24T03:47:29.640Z,62.65
2023-05-24T03:48:02.620Z,62.75
2023-05-24T03:48:34.873Z,61.92
2023-05-24T03:49:07.751Z,61.50
2023-05-24T03:49:41.448Z,62.03
2023-05-24T03:50:14.826Z,61.88
2023-05-24T03:50:47.327Z,61.40
2023-05-24T03:51:19.642Z,62.70
2023-05-24T03:51:54.434Z,62.00
2023-05-24T03:52:26.431Z,63.38
2023-05-24T03:52:58.489Z,61.45
2023-05-24T03:53:32.441Z,62.08
2023-05-24T03:54:05.754Z,62.17
2023-05-24T03:54:37.804Z,62.08
2023-05-24T03:55:11.724Z,60.67
2023-05-24T03:55:43.739Z,61.15
2023-05-24T03:56:16.978Z,62.15
2023-05-24T03:56:49.889Z,61.25
2023-05-24T03:57:21.868Z,61.60
2023-05-24T03:57:53.844Z,61.65
2023-05-24T03:58:27.330Z,62.15
2023-05-24T03:59:03.798Z,61.45
2023-05-24T03:59:38.764Z,61.55
2023-05-24T04:00:14.356Z,61.30
2023-05-24T04:00:46.324Z,62.53
2023-05-24T04:01:32.496Z,63.53
2023-05-24T04:02:06.829Z,62.05
2023-05-24T04:02:39.016Z,60.83
2023-05-24T04:03:12.227Z,61.80
2023-05-24T04:03:46.284Z,61.05
2023-05-24T04:04:18.419Z,61.83
2023-05-24T04:04:50.466Z,61.15
2023-05-24T04:05:26.949Z,61.20
2023-05-24T04:05:59.203Z,60.95
2023-05-24T04:06:31.255Z,61.13
2023-05-24T04:07:05.308Z,61.40
2023-05-24T04:07:37.416Z,61.70
2023-05-24T04:08:09.385Z,60.60
2023-05-24T04:08:44.038Z,61.15
2023-05-24T04:09:16.254Z,60.90
2023-05-24T04:09:48.250Z,62.05
2023-05-24T04:10:21.371Z,60.63
2023-05-24T04:10:54.010Z,61.17
2023-05-24T04:11:28.453Z,61.65
2023-05-24T04:12:02.229Z,62.45
2023-05-24T04:12:34.686Z,61.08
2023-05-24T04:13:08.763Z,62.10
2023-05-24T04:13:42.883Z,62.47
2023-05-24T04:14:14.958Z,62.03
2023-05-24T04:14:48.349Z,60.85
2023-05-24T04:15:21.362Z,61.90
2023-05-24T04:15:53.642Z,62.35
2023-05-24T04:16:27.458Z,62.63
2023-05-24T04:16:59.709Z,61.95
2023-05-24T04:17:35.128Z,61.35
2023-05-24T04:18:08.637Z,62.13
2023-05-24T04:18:41.020Z,61.45
2023-05-24T04:19:13.176Z,62.22
2023-05-24T04:19:46.799Z,61.00
2023-05-24T04:20:19.060Z,61.65
2023-05-24T04:20:51.496Z,61.70
2023-05-24T04:21:26.187Z,62.33
2023-05-24T04:21:59.495Z,60.67
2023-05-24T04:22:31.513Z,61.10
2023-05-24T04:23:04.784Z,61.20
2023-05-24T04:23:36.714Z,61.42
2023-05-24T04:24:09.454Z,61.47
2023-05-24T04:24:41.686Z,62.38
2023-05-24T04:25:15.496Z,61.53
2023-05-24T04:25:47.574Z,63.15
2023-05-24T04:26:21.286Z,61.72
2023-05-24T04:26:54.785Z,61.25
2023-05-24T04:27:27.036Z,60.95
2023-05-24T04:28:00.292Z,61.83
2023-05-24T04:28:38.060Z,61.50
2023-05-24T04:29:10.207Z,60.83
2023-05-24T04:29:42.337Z,61.90
2023-05-24T04:30:17.108Z,62.00
2023-05-24T04:30:49.148Z,61.30
2023-05-24T04:31:21.389Z,61.70
2023-05-24T04:31:54.677Z,61.10
2023-05-24T04:32:26.747Z,61.50
2023-05-24T04:32:59.352Z,61.90
2023-05-24T04:33:34.300Z,61.17
2023-05-24T04:34:07.776Z,61.55
2023-05-24T04:34:42.906Z,61.25
2023-05-24T04:35:16.806Z,62.15
2023-05-24T04:35:49.233Z,61.72
2023-05-24T04:36:25.153Z,64.10
2023-05-24T04:36:57.876Z,61.22
2023-05-24T04:37:31.729Z,61.10
2023-05-24T04:38:04.673Z,61.47
2023-05-24T04:38:38.713Z,60.50
2023-05-24T04:39:11.504Z,60.78
2023-05-24T04:39:45.416Z,61.10
2023-05-24T04:40:17.846Z,61.88
2023-05-24T04:40:50.102Z,61.85
2023-05-24T04:41:24.409Z,61.30
2023-05-24T04:41:58.044Z,61.20
2023-05-24T04:42:33.223Z,61.42
2023-05-24T04:43:08.939Z,62.53
2023-05-24T04:43:40.933Z,62.33
2023-05-24T04:44:12.909Z,61.45
2023-05-24T04:44:47.748Z,60.97
2023-05-24T04:45:21.211Z,61.58
2023-05-24T04:45:54.687Z,61.15
2023-05-24T04:46:28.466Z,61.13
2023-05-24T04:47:02.797Z,62.58
2023-05-24T04:47:34.852Z,62.97
2023-05-24T04:48:08.184Z,62.08
2023-05-24T04:48:40.718Z,61.50
2023-05-24T04:49:12.908Z,61.22
2023-05-24T04:49:46.250Z,62.65
2023-05-24T04:50:18.385Z,62.67
2023-05-24T04:50:51.729Z,61.80
2023-05-24T04:51:25.239Z,61.88
2023-05-24T04:51:58.826Z,61.95
2023-05-24T04:52:30.823Z,63.35
2023-05-24T04:53:04.040Z,61.78
2023-05-24T04:53:36.467Z,61.95
2023-05-24T04:54:09.243Z,63.58
2023-05-24T04:54:42.669Z,63.70
2023-05-24T04:55:14.610Z,62.40
2023-05-24T04:55:47.867Z,63.55
2023-05-24T04:56:20.982Z,62.40
2023-05-24T04:56:52.965Z,61.58
2023-05-24T04:57:24.991Z,62.50
2023-05-24T04:57:58.227Z,62.25
2023-05-24T04:58:30.758Z,62.75
2023-05-24T04:59:03.009Z,63.40
2023-05-24T04:59:36.259Z,62.58
2023-05-24T05:00:10.284Z,64.03
2023-05-24T05:00:44.728Z,62.78
2023-05-24T05:01:17.729Z,63.28
2023-05-24T05:01:49.857Z,62.53
2023-05-24T05:02:22.617Z,63.45
2023-05-24T05:02:56.232Z,63.15
2023-05-24T05:03:28.698Z,61.47
2023-05-24T05:04:00.972Z,62.25
2023-05-24T05:04:33.960Z,64.63
2023-05-24T05:05:06.624Z,61.63
2023-05-24T05:05:38.699Z,63.22
2023-05-24T05:06:11.649Z,63.50
2023-05-24T05:06:44.759Z,62.40
2023-05-24T05:07:17.085Z,63.47
2023-05-24T05:07:50.032Z,62.03
2023-05-24T05:08:22.090Z,62.35
2023-05-24T05:08:54.565Z,63.63
2023-05-24T05:09:28.218Z,62.20
2023-05-24T05:10:00.191Z,62.85
2023-05-24T05:10:32.750Z,62.55
2023-05-24T05:11:06.026Z,63.80
2023-05-24T05:11:38.097Z,63.42
2023-05-24T05:12:10.192Z,62.88
2023-05-24T05:12:43.195Z,63.50
2023-05-24T05:13:15.690Z,63.15
2023-05-24T05:13:47.669Z,62.13
2023-05-24T05:14:20.769Z,62.33
2023-05-24T05:14:52.714Z,62.60
2023-05-24T05:15:25.879Z,62.35
2023-05-24T05:15:59.261Z,63.05
2023-05-24T05:16:32.058Z,63.50
2023-05-24T05:17:05.313Z,63.58
2023-05-24T05:17:37.627Z,62.95
2023-05-24T05:18:09.610Z,63.47
2023-05-24T05:18:42.593Z,63.50
2023-05-24T05:19:15.123Z,63.25
2023-05-24T05:19:47.366Z,63.88
2023-05-24T05:20:20.603Z,63.97
2023-05-24T05:20:52.641Z,64.30
2023-05-24T05:21:25.573Z,64.47
2023-05-24T05:21:57.464Z,63.15
2023-05-24T05:22:31.373Z,64.18
2023-05-24T05:23:03.610Z,63.75
2023-05-24T05:23:36.357Z,63.28
2023-05-24T05:24:09.601Z,63.20
2023-05-24T05:24:41.539Z,63.08
2023-05-24T05:25:13.657Z,63.15
2023-05-24T05:25:46.656Z,63.58
2023-05-24T05:26:18.752Z,63.28
2023-05-24T05:26:50.745Z,63.58
2023-05-24T05:27:23.727Z,63.67
2023-05-24T05:27:55.712Z,62.65
2023-05-24T05:28:28.704Z,63.13
2023-05-24T05:29:00.696Z,64.03
2023-05-24T05:29:32.727Z,63.22
2023-05-24T05:30:07.112Z,63.45
2023-05-24T05:30:39.514Z,64.70
2023-05-24T05:31:13.845Z,63.83
2023-05-24T05:31:47.844Z,64.43
2023-05-24T05:32:19.850Z,63.83
2023-05-24T05:32:53.018Z,64.05
2023-05-24T05:33:25.308Z,64.60
2023-05-24T05:33:57.355Z,63.50
2023-05-24T05:34:30.347Z,64.10
2023-05-24T05:35:02.353Z,64.03
2023-05-24T05:35:34.318Z,63.08
2023-05-24T05:36:07.548Z,64.15
2023-05-24T05:36:40.913Z,63.78
2023-05-24T05:37:12.987Z,64.32
2023-05-24T05:37:45.931Z,63.03
2023-05-24T05:38:17.889Z,63.28
2023-05-24T05:38:49.848Z,64.45
2023-05-24T05:39:22.854Z,63.55
2023-05-24T05:39:54.958Z,64.63
2023-05-24T05:40:27.106Z,63.70
2023-05-24T05:41:00.029Z,64.95
2023-05-24T05:41:32.230Z,63.20
2023-05-24T05:42:04.622Z,62.88
2023-05-24T05:42:37.572Z,63.17
2023-05-24T05:43:09.635Z,63.83
2023-05-24T05:43:41.610Z,62.92
2023-05-24T05:44:14.753Z,63.67
2023-05-24T05:44:47.295Z,64.43
2023-05-24T05:45:19.463Z,63.35
2023-05-24T05:45:52.472Z,63.63
2023-05-24T05:46:25.904Z,63.28
2023-05-24T05:46:58.806Z,65.75
2023-05-24T05:47:30.898Z,62.25
2023-05-24T05:48:02.876Z,63.55
2023-05-24T05:48:35.802Z,63.63
2023-05-24T05:49:07.732Z,65.07
2023-05-24T05:49:39.665Z,64.95
2023-05-24T05:50:12.886Z,65.03
2023-05-24T05:50:44.862Z,64.90
2023-05-24T05:51:16.809Z,62.53
2023-05-24T05:51:50.093Z,64.40
2023-05-24T05:52:22.050Z,63.80
2023-05-24T05:52:55.017Z,64.28
2023-05-24T05:53:27.083Z,64.32
2023-05-24T05:54:00.149Z,65.15
2023-05-24T05:54:32.150Z,63.30
2023-05-24T05:55:05.563Z,64.93
2023-05-24T05:55:37.541Z,63.47
2023-05-24T05:56:09.584Z,63.78
2023-05-24T05:56:45.736Z,64.22
2023-05-24T05:57:19.691Z,63.20
2023-05-24T05:57:52.614Z,64.25
2023-05-24T05:58:24.672Z,63.85
2023-05-24T05:58:59.154Z,64.78
2023-05-24T05:59:35.892Z,64.80
2023-05-24T06:00:09.050Z,63.67
2023-05-24T06:00:45.045Z,64.07
2023-05-24T06:01:17.034Z,65.13
2023-05-24T06:01:51.438Z,63.88
2023-05-24T06:02:23.440Z,63.83
2023-05-24T06:02:56.695Z,63.53
2023-05-24T06:03:29.018Z,64.95
2023-05-24T06:04:01.228Z,64.25
2023-05-24T06:04:34.292Z,64.85
2023-05-24T06:05:06.924Z,64.10
2023-05-24T06:05:39.021Z,64.70
2023-05-24T06:06:12.494Z,64.75
2023-05-24T06:06:45.591Z,64.05
2023-05-24T06:07:17.535Z,63.25
2023-05-24T06:07:50.456Z,64.03
2023-05-24T06:08:22.423Z,65.20
2023-05-24T06:08:55.546Z,64.95
2023-05-24T06:09:27.706Z,63.70
2023-05-24T06:10:00.640Z,63.53
2023-05-24T06:10:32.617Z,63.67
2023-05-24T06:11:04.629Z,65.25
2023-05-24T06:11:37.564Z,64.45
2023-05-24T06:12:09.481Z,64.68
2023-05-24T06:12:42.393Z,64.72
2023-05-24T06:13:14.417Z,65.15
2023-05-24T06:13:46.358Z,63.25
2023-05-24T06:14:20.401Z,64.25
2023-05-24T06:14:52.478Z,63.40
2023-05-24T06:15:24.461Z,63.83
2023-05-24T06:15:58.975Z,63.72
2023-05-24T06:16:32.630Z,63.65
2023-05-24T06:17:07.515Z,64.05
2023-05-24T06:17:39.689Z,64.40
2023-05-24T06:18:13.707Z,65.63
2023-05-24T06:18:57.211Z,64.00
2023-05-24T06:19:34.944Z,64.57
2023-05-24T06:20:11.002Z,64.40
2023-05-24T06:20:44.941Z,65.15
2023-05-24T06:21:17.778Z,64.20
2023-05-24T06:21:50.868Z,64.80
2023-05-24T06:22:22.989Z,66.80
2023-05-24T06:22:57.239Z,64.78
2023-05-24T06:23:30.017Z,65.40
2023-05-24T06:24:02.646Z,64.90
2023-05-24T06:24:35.689Z,64.30
2023-05-24T06:25:08.608Z,64.28
2023-05-24T06:25:43.824Z,64.85
2023-05-24T06:26:16.787Z,64.20
2023-05-24T06:26:51.288Z,64.45
2023-05-24T06:27:23.372Z,64.25
2023-05-24T06:27:56.306Z,63.60
2023-05-24T06:28:28.254Z,64.18
2023-05-24T06:29:00.224Z,65.30
2023-05-24T06:29:33.220Z,64.45
2023-05-24T06:30:06.969Z,64.47
2023-05-24T06:30:40.138Z,64.57
2023-05-24T06:31:12.231Z,64.63
2023-05-24T06:31:44.309Z,65.05
2023-05-24T06:32:18.638Z,64.05
2023-05-24T06:32:50.771Z,64.22
2023-05-24T06:33:22.741Z,63.85
2023-05-24T06:34:03.764Z,64.85
2023-05-24T06:34:36.550Z,64.80
2023-05-24T06:35:10.289Z,64.03
2023-05-24T06:35:42.274Z,65.50
2023-05-24T06:36:15.227Z,64.60
2023-05-24T06:36:48.701Z,64.60
2023-05-24T06:37:25.653Z,64.13
2023-05-24T06:37:57.922Z,64.35
2023-05-24T06:38:32.943Z,65.15
2023-05-24T06:39:05.382Z,65.10
2023-05-24T06:39:37.600Z,63.92
2023-05-24T06:40:11.122Z,63.63
2023-05-24T06:40:43.316Z,64.40
2023-05-24T06:41:15.988Z,64.32
2023-05-24T06:41:51.234Z,63.90
2023-05-24T06:42:29.243Z,64.53
2023-05-24T06:43:02.200Z,63.95
2023-05-24T06:43:34.695Z,63.30
2023-05-24T06:44:06.769Z,64.70
2023-05-24T06:44:39.698Z,64.13
2023-05-24T06:45:12.075Z,65.55
2023-05-24T06:45:44.047Z,64.70
2023-05-24T06:46:17.143Z,65.10
2023-05-24T06:46:49.120Z,64.55
2023-05-24T06:47:24.051Z,64.18
2023-05-24T06:47:56.226Z,64.43
2023-05-24T06:48:28.346Z,65.45
2023-05-24T06:49:01.541Z,65.55
2023-05-24T06:49:33.608Z,65.28
2023-05-24T06:50:08.441Z,64.95
2023-05-24T06:50:42.649Z,66.18
2023-05-24T06:51:14.933Z,65.80
2023-05-24T06:51:50.676Z,65.00
2023-05-24T06:52:22.810Z,65.28
2023-05-24T06:52:55.828Z,65.15
2023-05-24T06:53:27.831Z,65.07
2023-05-24T06:54:00.204Z,65.18
2023-05-24T06:54:33.177Z,64.63
2023-05-24T06:55:05.941Z,64.90
2023-05-24T06:55:37.945Z,65.93
2023-05-24T06:56:12.032Z,66.28
2023-05-24T06:56:44.031Z,64.10
2023-05-24T06:57:16.111Z,65.30
2023-05-24T06:57:49.010Z,65.28
2023-05-24T06:58:21.075Z,65.68
2023-05-24T06:58:53.050Z,65.70
2023-05-24T06:59:25.987Z,66.13
2023-05-24T06:59:57.960Z,65.63
2023-05-24T07:00:30.941Z,64.63
2023-05-24T07:01:05.001Z,65.85
2023-05-24T07:01:39.799Z,65.47
2023-05-24T07:02:12.803Z,65.00
2023-05-24T07:02:46.181Z,64.78
2023-05-24T07:03:19.174Z,65.60
2023-05-24T07:03:51.684Z,65.97
2023-05-24T07:04:24.396Z,65.13
2023-05-24T07:04:58.328Z,66.32
2023-05-24T07:05:30.359Z,65.15
2023-05-24T07:06:03.683Z,65.72
2023-05-24T07:06:35.763Z,65.88
2023-05-24T07:07:09.089Z,64.85
2023-05-24T07:07:42.517Z,65.55
2023-05-24T07:08:15.462Z,66.82
2023-05-24T07:08:47.408Z,66.83
2023-05-24T07:09:19.762Z,65.00
2023-05-24T07:09:53.223Z,65.00
2023-05-24T07:10:25.262Z,65.85
2023-05-24T07:10:57.222Z,67.55
2023-05-24T07:11:30.188Z,65.40
2023-05-24T07:12:02.686Z,66.30
2023-05-24T07:12:34.757Z,66.43
2023-05-24T07:13:07.654Z,67.25
2023-05-24T07:13:39.649Z,66.38
2023-05-24T07:14:11.693Z,65.43
2023-05-24T07:14:44.686Z,65.78
2023-05-24T07:15:16.755Z,66.65